sensor_id;sensor_type;location;lat;lon;timestamp;P1;durP1;ratioP1;P2;durP2;ratioP2
14613;SDS011;7393;51.446;6.800;2024-03-08T00:00:15;19.10;;;13.63;;
14613;SDS011;7393;51.446;6.800;2024-03-08T00:02:44;20.30;;;14.43;;
14613;SDS011;7393;51.446;6.800;2024-03-08T00:05:12;19.67;;;13.43;;
14613;SDS011;7393;51.446;6.800;2024-03-08T00:07:40;16.50;;;13.00;;
14613;SDS011;7393;51.446;6.800;2024-03-08T00:10:09;18.23;;;13.43;;
14613;SDS011;7393;51.446;6.800;2024-03-08T00:12:38;21.60;;;14.50;;
14613;SDS011;7393;51.446;6.800;2024-03-08T00:15:07;22.00;;;15.87;;
14613;SDS011;7393;51.446;6.800;2024-03-08T00:17:34;19.83;;;14.47;;
14613;SDS011;7393;51.446;6.800;2024-03-08T00:20:01;20.73;;;13.57;;
14613;SDS011;7393;51.446;6.800;2024-03-08T00:22:33;18.63;;;13.43;;
14613;SDS011;7393;51.446;6.800;2024-03-08T00:25:00;22.57;;;13.90;;
14613;SDS011;7393;51.446;6.800;2024-03-08T00:27:27;22.63;;;13.87;;
14613;SDS011;7393;51.446;6.800;2024-03-08T00:29:57;19.07;;;13.97;;
14613;SDS011;7393;51.446;6.800;2024-03-08T00:32:24;17.70;;;13.60;;
14613;SDS011;7393;51.446;6.800;2024-03-08T00:34:51;22.73;;;14.30;;
14613;SDS011;7393;51.446;6.800;2024-03-08T00:37:17;17.40;;;13.33;;
14613;SDS011;7393;51.446;6.800;2024-03-08T00:39:44;18.77;;;14.03;;
14613;SDS011;7393;51.446;6.800;2024-03-08T00:42:11;20.30;;;14.70;;
14613;SDS011;7393;51.446;6.800;2024-03-08T00:44:38;17.17;;;13.10;;
14613;SDS011;7393;51.446;6.800;2024-03-08T00:47:07;21.70;;;14.47;;
14613;SDS011;7393;51.446;6.800;2024-03-08T00:49:33;19.33;;;14.30;;
14613;SDS011;7393;51.446;6.800;2024-03-08T00:52:01;19.10;;;14.37;;
14613;SDS011;7393;51.446;6.800;2024-03-08T00:54:28;21.20;;;14.70;;
14613;SDS011;7393;51.446;6.800;2024-03-08T00:56:55;20.00;;;13.83;;
14613;SDS011;7393;51.446;6.800;2024-03-08T00:59:22;18.43;;;13.37;;
14613;SDS011;7393;51.446;6.800;2024-03-08T01:01:48;19.17;;;13.90;;
14613;SDS011;7393;51.446;6.800;2024-03-08T01:04:17;19.30;;;14.33;;
14613;SDS011;7393;51.446;6.800;2024-03-08T01:06:45;22.57;;;15.10;;
14613;SDS011;7393;51.446;6.800;2024-03-08T01:09:12;20.50;;;15.17;;
14613;SDS011;7393;51.446;6.800;2024-03-08T01:11:39;23.67;;;14.00;;
14613;SDS011;7393;51.446;6.800;2024-03-08T01:14:07;18.50;;;14.00;;
14613;SDS011;7393;51.446;6.800;2024-03-08T01:16:34;19.07;;;14.67;;
14613;SDS011;7393;51.446;6.800;2024-03-08T01:19:01;19.87;;;14.30;;
14613;SDS011;7393;51.446;6.800;2024-03-08T01:21:29;17.87;;;14.50;;
14613;SDS011;7393;51.446;6.800;2024-03-08T01:23:56;21.30;;;14.50;;
14613;SDS011;7393;51.446;6.800;2024-03-08T01:26:23;20.00;;;14.37;;
14613;SDS011;7393;51.446;6.800;2024-03-08T01:28:50;21.30;;;14.70;;
14613;SDS011;7393;51.446;6.800;2024-03-08T01:31:16;19.60;;;14.73;;
14613;SDS011;7393;51.446;6.800;2024-03-08T01:33:43;22.43;;;15.23;;
14613;SDS011;7393;51.446;6.800;2024-03-08T01:36:10;19.80;;;15.33;;
14613;SDS011;7393;51.446;6.800;2024-03-08T01:38:42;19.37;;;14.67;;
14613;SDS011;7393;51.446;6.800;2024-03-08T01:41:09;20.60;;;14.53;;
14613;SDS011;7393;51.446;6.800;2024-03-08T01:43:37;21.50;;;14.70;;
14613;SDS011;7393;51.446;6.800;2024-03-08T01:46:04;25.43;;;16.27;;
14613;SDS011;7393;51.446;6.800;2024-03-08T01:48:33;22.50;;;15.23;;
14613;SDS011;7393;51.446;6.800;2024-03-08T01:51:00;21.07;;;15.80;;
14613;SDS011;7393;51.446;6.800;2024-03-08T01:53:27;23.40;;;15.63;;
14613;SDS011;7393;51.446;6.800;2024-03-08T01:55:57;23.73;;;16.33;;
14613;SDS011;7393;51.446;6.800;2024-03-08T01:58:25;21.90;;;15.60;;
14613;SDS011;7393;51.446;6.800;2024-03-08T02:00:53;21.40;;;14.90;;
14613;SDS011;7393;51.446;6.800;2024-03-08T02:03:22;21.00;;;14.93;;
14613;SDS011;7393;51.446;6.800;2024-03-08T02:05:49;22.23;;;16.10;;
14613;SDS011;7393;51.446;6.800;2024-03-08T02:08:16;20.53;;;15.73;;
14613;SDS011;7393;51.446;6.800;2024-03-08T02:10:44;21.67;;;15.37;;
14613;SDS011;7393;51.446;6.800;2024-03-08T02:13:12;22.07;;;15.57;;
14613;SDS011;7393;51.446;6.800;2024-03-08T02:15:52;21.83;;;15.77;;
14613;SDS011;7393;51.446;6.800;2024-03-08T02:18:19;22.43;;;16.57;;
14613;SDS011;7393;51.446;6.800;2024-03-08T02:20:48;22.87;;;15.80;;
14613;SDS011;7393;51.446;6.800;2024-03-08T02:23:15;23.47;;;15.57;;
14613;SDS011;7393;51.446;6.800;2024-03-08T02:25:43;20.80;;;16.07;;
14613;SDS011;7393;51.446;6.800;2024-03-08T02:28:10;25.70;;;15.60;;
14613;SDS011;7393;51.446;6.800;2024-03-08T02:30:38;20.43;;;15.70;;
14613;SDS011;7393;51.446;6.800;2024-03-08T02:33:05;21.80;;;16.40;;
14613;SDS011;7393;51.446;6.800;2024-03-08T02:35:34;22.10;;;15.97;;
14613;SDS011;7393;51.446;6.800;2024-03-08T02:38:03;21.10;;;15.63;;
14613;SDS011;7393;51.446;6.800;2024-03-08T02:40:30;23.67;;;15.77;;
14613;SDS011;7393;51.446;6.800;2024-03-08T02:42:57;21.63;;;16.13;;
14613;SDS011;7393;51.446;6.800;2024-03-08T02:45:24;24.17;;;16.10;;
14613;SDS011;7393;51.446;6.800;2024-03-08T02:47:51;19.70;;;15.60;;
14613;SDS011;7393;51.446;6.800;2024-03-08T02:50:18;20.20;;;16.20;;
14613;SDS011;7393;51.446;6.800;2024-03-08T02:52:44;23.00;;;15.87;;
14613;SDS011;7393;51.446;6.800;2024-03-08T02:55:13;23.53;;;16.27;;
14613;SDS011;7393;51.446;6.800;2024-03-08T02:57:41;24.07;;;17.20;;
14613;SDS011;7393;51.446;6.800;2024-03-08T03:00:09;23.57;;;16.90;;
14613;SDS011;7393;51.446;6.800;2024-03-08T03:02:36;23.47;;;16.47;;
14613;SDS011;7393;51.446;6.800;2024-03-08T03:05:03;26.90;;;16.87;;
14613;SDS011;7393;51.446;6.800;2024-03-08T03:07:31;22.50;;;16.80;;
14613;SDS011;7393;51.446;6.800;2024-03-08T03:09:58;24.33;;;17.20;;
14613;SDS011;7393;51.446;6.800;2024-03-08T03:12:28;24.07;;;17.13;;
14613;SDS011;7393;51.446;6.800;2024-03-08T03:14:55;24.97;;;17.00;;
14613;SDS011;7393;51.446;6.800;2024-03-08T03:17:22;23.73;;;17.03;;
14613;SDS011;7393;51.446;6.800;2024-03-08T03:19:49;23.30;;;16.40;;
14613;SDS011;7393;51.446;6.800;2024-03-08T03:22:16;22.80;;;16.60;;
14613;SDS011;7393;51.446;6.800;2024-03-08T03:24:43;21.87;;;15.90;;
14613;SDS011;7393;51.446;6.800;2024-03-08T03:27:11;24.23;;;16.57;;
14613;SDS011;7393;51.446;6.800;2024-03-08T03:29:40;24.77;;;17.60;;
14613;SDS011;7393;51.446;6.800;2024-03-08T03:32:10;22.77;;;16.57;;
14613;SDS011;7393;51.446;6.800;2024-03-08T03:34:37;26.80;;;17.97;;
14613;SDS011;7393;51.446;6.800;2024-03-08T03:37:04;25.20;;;18.73;;
14613;SDS011;7393;51.446;6.800;2024-03-08T03:39:32;25.47;;;17.47;;
14613;SDS011;7393;51.446;6.800;2024-03-08T03:41:59;23.47;;;16.73;;
14613;SDS011;7393;51.446;6.800;2024-03-08T03:44:27;27.07;;;17.83;;
14613;SDS011;7393;51.446;6.800;2024-03-08T03:46:55;22.80;;;17.53;;
14613;SDS011;7393;51.446;6.800;2024-03-08T03:49:22;23.90;;;17.07;;
14613;SDS011;7393;51.446;6.800;2024-03-08T03:51:48;23.43;;;17.20;;
14613;SDS011;7393;51.446;6.800;2024-03-08T03:54:15;23.67;;;16.47;;
14613;SDS011;7393;51.446;6.800;2024-03-08T03:56:42;23.97;;;16.97;;
14613;SDS011;7393;51.446;6.800;2024-03-08T03:59:10;25.07;;;17.80;;
14613;SDS011;7393;51.446;6.800;2024-03-08T04:01:40;22.53;;;17.63;;
14613;SDS011;7393;51.446;6.800;2024-03-08T04:04:09;25.00;;;17.27;;
14613;SDS011;7393;51.446;6.800;2024-03-08T04:06:37;26.63;;;17.50;;
14613;SDS011;7393;51.446;6.800;2024-03-08T04:09:04;24.90;;;17.13;;
14613;SDS011;7393;51.446;6.800;2024-03-08T04:11:31;26.87;;;17.37;;
14613;SDS011;7393;51.446;6.800;2024-03-08T04:13:57;25.10;;;17.33;;
14613;SDS011;7393;51.446;6.800;2024-03-08T04:16:24;27.33;;;17.63;;
14613;SDS011;7393;51.446;6.800;2024-03-08T04:18:51;23.97;;;17.13;;
14613;SDS011;7393;51.446;6.800;2024-03-08T04:21:19;25.47;;;17.83;;
14613;SDS011;7393;51.446;6.800;2024-03-08T04:23:46;27.20;;;17.93;;
14613;SDS011;7393;51.446;6.800;2024-03-08T04:26:13;26.73;;;18.40;;
14613;SDS011;7393;51.446;6.800;2024-03-08T04:28:40;29.70;;;18.37;;
14613;SDS011;7393;51.446;6.800;2024-03-08T04:31:06;26.97;;;18.33;;
14613;SDS011;7393;51.446;6.800;2024-03-08T04:33:34;25.80;;;17.67;;
14613;SDS011;7393;51.446;6.800;2024-03-08T04:36:00;25.53;;;16.77;;
14613;SDS011;7393;51.446;6.800;2024-03-08T04:38:30;26.03;;;18.10;;
14613;SDS011;7393;51.446;6.800;2024-03-08T04:40:57;26.83;;;18.60;;
14613;SDS011;7393;51.446;6.800;2024-03-08T04:43:25;24.23;;;17.47;;
14613;SDS011;7393;51.446;6.800;2024-03-08T04:45:52;26.67;;;18.80;;
14613;SDS011;7393;51.446;6.800;2024-03-08T04:48:19;25.93;;;17.90;;
14613;SDS011;7393;51.446;6.800;2024-03-08T04:50:46;26.50;;;18.20;;
14613;SDS011;7393;51.446;6.800;2024-03-08T04:53:13;26.80;;;17.60;;
14613;SDS011;7393;51.446;6.800;2024-03-08T04:55:41;27.50;;;19.10;;
14613;SDS011;7393;51.446;6.800;2024-03-08T04:58:08;28.03;;;18.97;;
14613;SDS011;7393;51.446;6.800;2024-03-08T05:00:34;28.67;;;18.73;;
14613;SDS011;7393;51.446;6.800;2024-03-08T05:03:01;28.80;;;19.70;;
14613;SDS011;7393;51.446;6.800;2024-03-08T05:05:29;26.77;;;18.77;;
14613;SDS011;7393;51.446;6.800;2024-03-08T05:07:58;28.63;;;19.67;;
14613;SDS011;7393;51.446;6.800;2024-03-08T05:10:26;27.37;;;18.23;;
14613;SDS011;7393;51.446;6.800;2024-03-08T05:12:54;28.00;;;18.00;;
14613;SDS011;7393;51.446;6.800;2024-03-08T05:15:21;27.03;;;18.37;;
14613;SDS011;7393;51.446;6.800;2024-03-08T05:17:48;26.80;;;18.30;;
14613;SDS011;7393;51.446;6.800;2024-03-08T05:20:15;26.80;;;18.60;;
14613;SDS011;7393;51.446;6.800;2024-03-08T05:22:42;28.13;;;18.73;;
14613;SDS011;7393;51.446;6.800;2024-03-08T05:25:09;28.17;;;18.73;;
14613;SDS011;7393;51.446;6.800;2024-03-08T05:27:37;28.77;;;19.67;;
14613;SDS011;7393;51.446;6.800;2024-03-08T05:30:05;30.77;;;18.87;;
14613;SDS011;7393;51.446;6.800;2024-03-08T05:32:38;26.73;;;18.53;;
14613;SDS011;7393;51.446;6.800;2024-03-08T05:35:05;29.33;;;19.50;;
14613;SDS011;7393;51.446;6.800;2024-03-08T05:37:33;30.97;;;19.17;;
14613;SDS011;7393;51.446;6.800;2024-03-08T05:40:00;28.47;;;19.27;;
14613;SDS011;7393;51.446;6.800;2024-03-08T05:42:28;29.33;;;19.13;;
14613;SDS011;7393;51.446;6.800;2024-03-08T05:44:55;27.00;;;18.73;;
14613;SDS011;7393;51.446;6.800;2024-03-08T05:47:23;30.07;;;19.57;;
14613;SDS011;7393;51.446;6.800;2024-03-08T05:49:50;28.63;;;20.07;;
14613;SDS011;7393;51.446;6.800;2024-03-08T05:52:18;29.63;;;19.60;;
14613;SDS011;7393;51.446;6.800;2024-03-08T05:54:45;27.43;;;19.37;;
14613;SDS011;7393;51.446;6.800;2024-03-08T05:57:12;27.23;;;18.30;;
14613;SDS011;7393;51.446;6.800;2024-03-08T05:59:39;28.43;;;18.93;;
14613;SDS011;7393;51.446;6.800;2024-03-08T06:02:06;28.33;;;19.73;;
14613;SDS011;7393;51.446;6.800;2024-03-08T06:04:34;28.43;;;19.60;;
14613;SDS011;7393;51.446;6.800;2024-03-08T06:07:01;27.43;;;18.90;;
14613;SDS011;7393;51.446;6.800;2024-03-08T06:09:28;29.40;;;19.87;;
14613;SDS011;7393;51.446;6.800;2024-03-08T06:11:55;28.47;;;19.77;;
14613;SDS011;7393;51.446;6.800;2024-03-08T06:14:22;29.73;;;19.47;;
14613;SDS011;7393;51.446;6.800;2024-03-08T06:16:49;27.87;;;19.50;;
14613;SDS011;7393;51.446;6.800;2024-03-08T06:19:16;27.80;;;19.07;;
14613;SDS011;7393;51.446;6.800;2024-03-08T06:21:44;28.77;;;19.63;;
14613;SDS011;7393;51.446;6.800;2024-03-08T06:24:11;30.03;;;19.53;;
14613;SDS011;7393;51.446;6.800;2024-03-08T06:26:37;28.57;;;19.57;;
14613;SDS011;7393;51.446;6.800;2024-03-08T06:29:04;29.23;;;19.53;;
14613;SDS011;7393;51.446;6.800;2024-03-08T06:31:32;33.37;;;20.57;;
14613;SDS011;7393;51.446;6.800;2024-03-08T06:33:58;27.80;;;18.43;;
14613;SDS011;7393;51.446;6.800;2024-03-08T06:36:25;30.37;;;20.53;;
14613;SDS011;7393;51.446;6.800;2024-03-08T06:38:54;27.63;;;19.90;;
14613;SDS011;7393;51.446;6.800;2024-03-08T06:41:22;29.67;;;19.80;;
14613;SDS011;7393;51.446;6.800;2024-03-08T06:43:49;34.00;;;20.30;;
14613;SDS011;7393;51.446;6.800;2024-03-08T06:46:16;28.67;;;20.07;;
14613;SDS011;7393;51.446;6.800;2024-03-08T06:48:45;32.23;;;20.53;;
14613;SDS011;7393;51.446;6.800;2024-03-08T06:51:12;33.33;;;20.80;;
14613;SDS011;7393;51.446;6.800;2024-03-08T06:53:39;29.87;;;20.57;;
14613;SDS011;7393;51.446;6.800;2024-03-08T06:56:07;30.60;;;20.77;;
14613;SDS011;7393;51.446;6.800;2024-03-08T06:58:34;31.40;;;20.50;;
14613;SDS011;7393;51.446;6.800;2024-03-08T07:01:01;30.37;;;19.90;;
14613;SDS011;7393;51.446;6.800;2024-03-08T07:03:29;29.70;;;20.33;;
14613;SDS011;7393;51.446;6.800;2024-03-08T07:05:57;33.63;;;21.77;;
14613;SDS011;7393;51.446;6.800;2024-03-08T07:08:24;31.50;;;20.23;;
14613;SDS011;7393;51.446;6.800;2024-03-08T07:10:52;31.57;;;20.73;;
14613;SDS011;7393;51.446;6.800;2024-03-08T07:13:20;30.13;;;20.40;;
14613;SDS011;7393;51.446;6.800;2024-03-08T07:15:47;29.57;;;19.53;;
14613;SDS011;7393;51.446;6.800;2024-03-08T07:18:13;29.27;;;19.67;;
14613;SDS011;7393;51.446;6.800;2024-03-08T07:20:40;33.30;;;20.47;;
14613;SDS011;7393;51.446;6.800;2024-03-08T07:23:08;31.00;;;20.67;;
14613;SDS011;7393;51.446;6.800;2024-03-08T07:25:35;30.23;;;20.67;;
14613;SDS011;7393;51.446;6.800;2024-03-08T07:28:04;31.87;;;20.23;;
14613;SDS011;7393;51.446;6.800;2024-03-08T07:30:33;31.20;;;20.23;;
14613;SDS011;7393;51.446;6.800;2024-03-08T07:33:26;31.27;;;21.27;;
14613;SDS011;7393;51.446;6.800;2024-03-08T07:35:53;29.47;;;19.87;;
14613;SDS011;7393;51.446;6.800;2024-03-08T07:38:20;28.47;;;20.57;;
14613;SDS011;7393;51.446;6.800;2024-03-08T07:40:47;30.43;;;21.63;;
14613;SDS011;7393;51.446;6.800;2024-03-08T07:43:14;31.60;;;21.07;;
14613;SDS011;7393;51.446;6.800;2024-03-08T07:45:42;30.50;;;20.93;;
14613;SDS011;7393;51.446;6.800;2024-03-08T07:48:09;30.90;;;20.27;;
14613;SDS011;7393;51.446;6.800;2024-03-08T07:50:37;30.10;;;19.97;;
14613;SDS011;7393;51.446;6.800;2024-03-08T07:53:04;34.97;;;21.47;;
14613;SDS011;7393;51.446;6.800;2024-03-08T07:55:32;29.53;;;20.30;;
14613;SDS011;7393;51.446;6.800;2024-03-08T07:58:00;32.87;;;20.43;;
14613;SDS011;7393;51.446;6.800;2024-03-08T08:00:27;33.73;;;21.47;;
14613;SDS011;7393;51.446;6.800;2024-03-08T08:02:57;31.17;;;20.40;;
14613;SDS011;7393;51.446;6.800;2024-03-08T08:05:24;32.53;;;20.33;;
14613;SDS011;7393;51.446;6.800;2024-03-08T08:07:51;29.87;;;21.17;;
14613;SDS011;7393;51.446;6.800;2024-03-08T08:10:18;32.87;;;20.77;;
14613;SDS011;7393;51.446;6.800;2024-03-08T08:12:46;33.33;;;21.47;;
14613;SDS011;7393;51.446;6.800;2024-03-08T08:15:13;32.50;;;21.20;;
14613;SDS011;7393;51.446;6.800;2024-03-08T08:17:40;30.23;;;20.50;;
14613;SDS011;7393;51.446;6.800;2024-03-08T08:20:10;29.87;;;20.80;;
14613;SDS011;7393;51.446;6.800;2024-03-08T08:22:38;33.30;;;21.23;;
14613;SDS011;7393;51.446;6.800;2024-03-08T08:25:05;30.73;;;20.33;;
14613;SDS011;7393;51.446;6.800;2024-03-08T08:27:33;30.33;;;21.20;;
14613;SDS011;7393;51.446;6.800;2024-03-08T08:30:01;31.27;;;20.83;;
14613;SDS011;7393;51.446;6.800;2024-03-08T08:32:33;31.83;;;20.27;;
14613;SDS011;7393;51.446;6.800;2024-03-08T08:35:00;29.80;;;20.07;;
14613;SDS011;7393;51.446;6.800;2024-03-08T08:37:28;30.50;;;20.20;;
14613;SDS011;7393;51.446;6.800;2024-03-08T08:39:56;31.23;;;19.37;;
14613;SDS011;7393;51.446;6.800;2024-03-08T08:42:23;31.87;;;20.47;;
14613;SDS011;7393;51.446;6.800;2024-03-08T08:44:50;28.40;;;19.17;;
14613;SDS011;7393;51.446;6.800;2024-03-08T08:47:17;28.53;;;19.30;;
14613;SDS011;7393;51.446;6.800;2024-03-08T08:49:44;28.47;;;19.23;;
14613;SDS011;7393;51.446;6.800;2024-03-08T08:52:12;27.80;;;18.53;;
14613;SDS011;7393;51.446;6.800;2024-03-08T08:54:42;27.93;;;19.20;;
14613;SDS011;7393;51.446;6.800;2024-03-08T08:57:09;27.17;;;19.37;;
14613;SDS011;7393;51.446;6.800;2024-03-08T08:59:36;29.27;;;18.80;;
14613;SDS011;7393;51.446;6.800;2024-03-08T09:02:04;26.87;;;18.43;;
14613;SDS011;7393;51.446;6.800;2024-03-08T09:04:31;27.63;;;18.27;;
14613;SDS011;7393;51.446;6.800;2024-03-08T09:06:58;25.50;;;18.03;;
14613;SDS011;7393;51.446;6.800;2024-03-08T09:09:26;25.20;;;17.77;;
14613;SDS011;7393;51.446;6.800;2024-03-08T09:11:55;26.27;;;18.20;;
14613;SDS011;7393;51.446;6.800;2024-03-08T09:14:22;27.20;;;18.63;;
14613;SDS011;7393;51.446;6.800;2024-03-08T09:16:51;27.17;;;18.40;;
14613;SDS011;7393;51.446;6.800;2024-03-08T09:19:17;26.47;;;17.93;;
14613;SDS011;7393;51.446;6.800;2024-03-08T09:21:45;28.57;;;18.07;;
14613;SDS011;7393;51.446;6.800;2024-03-08T09:24:12;25.07;;;16.93;;
14613;SDS011;7393;51.446;6.800;2024-03-08T09:26:39;23.93;;;17.80;;
14613;SDS011;7393;51.446;6.800;2024-03-08T09:29:08;24.77;;;17.10;;
14613;SDS011;7393;51.446;6.800;2024-03-08T09:31:35;28.40;;;18.60;;
14613;SDS011;7393;51.446;6.800;2024-03-08T09:34:03;23.33;;;17.23;;
14613;SDS011;7393;51.446;6.800;2024-03-08T09:36:29;25.47;;;18.47;;
14613;SDS011;7393;51.446;6.800;2024-03-08T09:38:57;26.13;;;17.97;;
14613;SDS011;7393;51.446;6.800;2024-03-08T09:41:25;24.70;;;17.10;;
14613;SDS011;7393;51.446;6.800;2024-03-08T09:43:52;25.00;;;17.93;;
14613;SDS011;7393;51.446;6.800;2024-03-08T09:46:22;24.20;;;17.10;;
14613;SDS011;7393;51.446;6.800;2024-03-08T09:48:49;26.53;;;17.93;;
14613;SDS011;7393;51.446;6.800;2024-03-08T09:51:16;22.50;;;16.40;;
14613;SDS011;7393;51.446;6.800;2024-03-08T09:53:43;25.00;;;17.17;;
14613;SDS011;7393;51.446;6.800;2024-03-08T09:56:11;24.07;;;16.67;;
14613;SDS011;7393;51.446;6.800;2024-03-08T09:58:38;25.27;;;18.37;;
14613;SDS011;7393;51.446;6.800;2024-03-08T10:01:41;23.33;;;17.50;;
14613;SDS011;7393;51.446;6.800;2024-03-08T10:04:09;24.20;;;17.23;;
14613;SDS011;7393;51.446;6.800;2024-03-08T10:06:36;25.43;;;17.57;;
14613;SDS011;7393;51.446;6.800;2024-03-08T10:09:02;25.33;;;17.23;;
14613;SDS011;7393;51.446;6.800;2024-03-08T10:11:31;24.57;;;16.90;;
14613;SDS011;7393;51.446;6.800;2024-03-08T10:13:58;23.50;;;17.03;;
14613;SDS011;7393;51.446;6.800;2024-03-08T10:16:26;23.13;;;16.67;;
14613;SDS011;7393;51.446;6.800;2024-03-08T10:18:55;23.77;;;16.10;;
14613;SDS011;7393;51.446;6.800;2024-03-08T10:21:22;21.47;;;16.07;;
14613;SDS011;7393;51.446;6.800;2024-03-08T10:23:50;24.33;;;16.70;;
14613;SDS011;7393;51.446;6.800;2024-03-08T10:26:17;25.13;;;16.87;;
14613;SDS011;7393;51.446;6.800;2024-03-08T10:28:46;21.07;;;16.13;;
14613;SDS011;7393;51.446;6.800;2024-03-08T10:31:14;22.17;;;15.73;;
14613;SDS011;7393;51.446;6.800;2024-03-08T10:33:41;19.63;;;14.60;;
14613;SDS011;7393;51.446;6.800;2024-03-08T10:36:10;24.60;;;16.83;;
14613;SDS011;7393;51.446;6.800;2024-03-08T10:38:39;22.23;;;16.20;;
14613;SDS011;7393;51.446;6.800;2024-03-08T10:41:08;21.47;;;15.77;;
14613;SDS011;7393;51.446;6.800;2024-03-08T10:43:40;21.07;;;15.20;;
14613;SDS011;7393;51.446;6.800;2024-03-08T10:46:26;20.47;;;15.17;;
14613;SDS011;7393;51.446;6.800;2024-03-08T10:49:01;22.27;;;15.07;;
14613;SDS011;7393;51.446;6.800;2024-03-08T10:51:34;19.40;;;14.93;;
14613;SDS011;7393;51.446;6.800;2024-03-08T10:54:03;19.87;;;13.47;;
14613;SDS011;7393;51.446;6.800;2024-03-08T10:56:30;19.93;;;13.83;;
14613;SDS011;7393;51.446;6.800;2024-03-08T10:58:57;18.47;;;13.43;;
14613;SDS011;7393;51.446;6.800;2024-03-08T11:01:24;18.50;;;13.83;;
14613;SDS011;7393;51.446;6.800;2024-03-08T11:03:51;18.37;;;14.37;;
14613;SDS011;7393;51.446;6.800;2024-03-08T11:06:22;20.03;;;14.80;;
14613;SDS011;7393;51.446;6.800;2024-03-08T11:08:57;21.13;;;14.53;;
14613;SDS011;7393;51.446;6.800;2024-03-08T11:11:24;18.73;;;13.67;;
14613;SDS011;7393;51.446;6.800;2024-03-08T11:13:59;21.93;;;14.07;;
14613;SDS011;7393;51.446;6.800;2024-03-08T11:16:39;17.93;;;13.63;;
14613;SDS011;7393;51.446;6.800;2024-03-08T11:19:23;18.50;;;13.77;;
14613;SDS011;7393;51.446;6.800;2024-03-08T11:22:01;18.63;;;13.67;;
14613;SDS011;7393;51.446;6.800;2024-03-08T11:24:40;24.67;;;13.83;;
14613;SDS011;7393;51.446;6.800;2024-03-08T11:27:07;21.47;;;16.00;;
14613;SDS011;7393;51.446;6.800;2024-03-08T11:29:37;23.60;;;15.73;;
14613;SDS011;7393;51.446;6.800;2024-03-08T11:32:07;20.50;;;15.13;;
14613;SDS011;7393;51.446;6.800;2024-03-08T11:34:35;19.33;;;14.67;;
14613;SDS011;7393;51.446;6.800;2024-03-08T11:37:03;22.20;;;15.83;;
14613;SDS011;7393;51.446;6.800;2024-03-08T11:39:32;19.13;;;15.93;;
14613;SDS011;7393;51.446;6.800;2024-03-08T11:42:00;24.20;;;16.57;;
14613;SDS011;7393;51.446;6.800;2024-03-08T11:44:27;25.37;;;17.33;;
14613;SDS011;7393;51.446;6.800;2024-03-08T11:46:54;20.73;;;16.57;;
14613;SDS011;7393;51.446;6.800;2024-03-08T11:49:20;22.90;;;16.87;;
14613;SDS011;7393;51.446;6.800;2024-03-08T11:51:50;23.90;;;17.67;;
14613;SDS011;7393;51.446;6.800;2024-03-08T11:54:18;20.80;;;16.80;;
14613;SDS011;7393;51.446;6.800;2024-03-08T11:56:45;23.20;;;17.40;;
14613;SDS011;7393;51.446;6.800;2024-03-08T11:59:14;22.33;;;16.93;;
14613;SDS011;7393;51.446;6.800;2024-03-08T12:01:42;24.20;;;17.37;;
14613;SDS011;7393;51.446;6.800;2024-03-08T12:04:11;22.17;;;17.43;;
14613;SDS011;7393;51.446;6.800;2024-03-08T12:06:39;21.60;;;16.43;;
14613;SDS011;7393;51.446;6.800;2024-03-08T12:09:08;20.57;;;17.03;;
14613;SDS011;7393;51.446;6.800;2024-03-08T12:11:35;21.07;;;17.20;;
14613;SDS011;7393;51.446;6.800;2024-03-08T12:14:02;21.47;;;15.73;;
14613;SDS011;7393;51.446;6.800;2024-03-08T12:16:31;22.30;;;16.93;;
14613;SDS011;7393;51.446;6.800;2024-03-08T12:18:59;22.47;;;17.03;;
14613;SDS011;7393;51.446;6.800;2024-03-08T12:21:31;21.23;;;15.87;;
14613;SDS011;7393;51.446;6.800;2024-03-08T12:24:03;21.17;;;16.37;;
14613;SDS011;7393;51.446;6.800;2024-03-08T12:26:33;19.90;;;16.17;;
14613;SDS011;7393;51.446;6.800;2024-03-08T12:29:14;23.53;;;16.67;;
14613;SDS011;7393;51.446;6.800;2024-03-08T12:31:49;21.03;;;16.63;;
14613;SDS011;7393;51.446;6.800;2024-03-08T12:34:18;19.57;;;15.63;;
14613;SDS011;7393;51.446;6.800;2024-03-08T12:36:45;20.57;;;16.17;;
14613;SDS011;7393;51.446;6.800;2024-03-08T12:39:17;21.67;;;16.37;;
14613;SDS011;7393;51.446;6.800;2024-03-08T12:41:47;20.50;;;16.23;;
14613;SDS011;7393;51.446;6.800;2024-03-08T12:44:16;20.30;;;15.20;;
14613;SDS011;7393;51.446;6.800;2024-03-08T12:46:43;20.47;;;15.83;;
14613;SDS011;7393;51.446;6.800;2024-03-08T12:49:12;19.53;;;16.30;;
14613;SDS011;7393;51.446;6.800;2024-03-08T12:51:42;20.30;;;15.40;;
14613;SDS011;7393;51.446;6.800;2024-03-08T12:54:10;18.83;;;15.40;;
14613;SDS011;7393;51.446;6.800;2024-03-08T12:56:37;16.83;;;13.60;;
14613;SDS011;7393;51.446;6.800;2024-03-08T12:59:05;18.63;;;14.67;;
14613;SDS011;7393;51.446;6.800;2024-03-08T13:01:33;18.43;;;14.40;;
14613;SDS011;7393;51.446;6.800;2024-03-08T13:04:02;16.13;;;13.87;;
14613;SDS011;7393;51.446;6.800;2024-03-08T13:06:32;18.33;;;13.40;;
14613;SDS011;7393;51.446;6.800;2024-03-08T13:08:59;17.13;;;13.10;;
14613;SDS011;7393;51.446;6.800;2024-03-08T13:11:30;17.23;;;12.47;;
14613;SDS011;7393;51.446;6.800;2024-03-08T13:14:01;19.13;;;13.87;;
14613;SDS011;7393;51.446;6.800;2024-03-08T13:16:30;15.03;;;11.87;;
14613;SDS011;7393;51.446;6.800;2024-03-08T13:18:57;16.30;;;12.63;;
14613;SDS011;7393;51.446;6.800;2024-03-08T13:21:24;12.70;;;10.60;;
14613;SDS011;7393;51.446;6.800;2024-03-08T13:23:52;15.60;;;11.17;;
14613;SDS011;7393;51.446;6.800;2024-03-08T13:26:20;13.73;;;11.10;;
14613;SDS011;7393;51.446;6.800;2024-03-08T13:28:47;12.80;;;9.87;;
14613;SDS011;7393;51.446;6.800;2024-03-08T13:31:18;12.33;;;10.20;;
14613;SDS011;7393;51.446;6.800;2024-03-08T13:33:45;11.77;;;9.13;;
14613;SDS011;7393;51.446;6.800;2024-03-08T13:36:12;12.43;;;8.90;;
14613;SDS011;7393;51.446;6.800;2024-03-08T13:38:41;9.73;;;7.90;;
14613;SDS011;7393;51.446;6.800;2024-03-08T13:41:10;10.90;;;8.60;;
14613;SDS011;7393;51.446;6.800;2024-03-08T13:43:40;10.93;;;7.53;;
14613;SDS011;7393;51.446;6.800;2024-03-08T13:46:06;10.17;;;7.23;;
14613;SDS011;7393;51.446;6.800;2024-03-08T13:48:35;9.53;;;7.20;;
14613;SDS011;7393;51.446;6.800;2024-03-08T13:51:02;7.17;;;6.03;;
14613;SDS011;7393;51.446;6.800;2024-03-08T13:53:29;8.83;;;7.00;;
14613;SDS011;7393;51.446;6.800;2024-03-08T13:55:57;8.27;;;7.00;;
14613;SDS011;7393;51.446;6.800;2024-03-08T13:58:25;8.33;;;6.47;;
14613;SDS011;7393;51.446;6.800;2024-03-08T14:00:52;8.17;;;5.77;;
14613;SDS011;7393;51.446;6.800;2024-03-08T14:03:19;10.30;;;6.40;;
14613;SDS011;7393;51.446;6.800;2024-03-08T14:05:46;8.40;;;6.70;;
14613;SDS011;7393;51.446;6.800;2024-03-08T14:08:12;7.37;;;6.43;;
14613;SDS011;7393;51.446;6.800;2024-03-08T14:10:41;7.93;;;6.40;;
14613;SDS011;7393;51.446;6.800;2024-03-08T14:13:08;8.97;;;6.63;;
14613;SDS011;7393;51.446;6.800;2024-03-08T14:15:38;8.43;;;6.47;;
14613;SDS011;7393;51.446;6.800;2024-03-08T14:18:07;7.63;;;6.23;;
14613;SDS011;7393;51.446;6.800;2024-03-08T14:20:34;10.93;;;6.97;;
14613;SDS011;7393;51.446;6.800;2024-03-08T14:23:01;7.33;;;5.83;;
14613;SDS011;7393;51.446;6.800;2024-03-08T14:25:28;8.23;;;6.40;;
14613;SDS011;7393;51.446;6.800;2024-03-08T14:27:55;8.63;;;6.90;;
14613;SDS011;7393;51.446;6.800;2024-03-08T14:30:23;8.00;;;6.73;;
14613;SDS011;7393;51.446;6.800;2024-03-08T14:33:04;8.37;;;7.03;;
14613;SDS011;7393;51.446;6.800;2024-03-08T14:35:34;7.47;;;6.00;;
14613;SDS011;7393;51.446;6.800;2024-03-08T14:38:00;7.07;;;6.33;;
14613;SDS011;7393;51.446;6.800;2024-03-08T14:40:28;7.87;;;6.03;;